sensor_id;sensor_type;location;lat;lon;timestamp;P1;durP1;ratioP1;P2;durP2;ratioP2
73172;SDS011;61388;54.962;73.394;2022-07-10T00:02:03;13.68;;;6.75;;
73172;SDS011;61388;54.962;73.394;2022-07-10T00:04:29;13.55;;;6.65;;
73172;SDS011;61388;54.962;73.394;2022-07-10T00:06:55;11.50;;;6.80;;
73172;SDS011;61388;54.962;73.394;2022-07-10T00:09:21;9.75;;;6.75;;
73172;SDS011;61388;54.962;73.394;2022-07-10T00:11:54;9.13;;;6.03;;
73172;SDS011;61388;54.962;73.394;2022-07-10T00:14:21;8.98;;;6.43;;
73172;SDS011;61388;54.962;73.394;2022-07-10T00:16:47;9.73;;;6.35;;
73172;SDS011;61388;54.962;73.394;2022-07-10T00:19:13;9.77;;;6.50;;
73172;SDS011;61388;54.962;73.394;2022-07-10T00:21:39;17.63;;;6.63;;
73172;SDS011;61388;54.962;73.394;2022-07-10T00:24:05;10.07;;;6.43;;
73172;SDS011;61388;54.962;73.394;2022-07-10T00:26:31;9.65;;;7.03;;
73172;SDS011;61388;54.962;73.394;2022-07-10T00:28:57;16.57;;;6.90;;
73172;SDS011;61388;54.962;73.394;2022-07-10T00:31:27;14.95;;;7.32;;
73172;SDS011;61388;54.962;73.394;2022-07-10T00:33:53;9.77;;;6.65;;
73172;SDS011;61388;54.962;73.394;2022-07-10T00:36:19;14.48;;;7.15;;
73172;SDS011;61388;54.962;73.394;2022-07-10T00:38:52;11.48;;;7.00;;
73172;SDS011;61388;54.962;73.394;2022-07-10T00:41:18;11.65;;;7.05;;
73172;SDS011;61388;54.962;73.394;2022-07-10T00:43:50;9.98;;;6.93;;
73172;SDS011;61388;54.962;73.394;2022-07-10T00:46:27;10.40;;;7.18;;
73172;SDS011;61388;54.962;73.394;2022-07-10T00:48:56;10.50;;;7.22;;
73172;SDS011;61388;54.962;73.394;2022-07-10T00:51:28;12.75;;;7.28;;
73172;SDS011;61388;54.962;73.394;2022-07-10T00:53:55;12.52;;;7.22;;
73172;SDS011;61388;54.962;73.394;2022-07-10T00:56:26;11.77;;;7.35;;
73172;SDS011;61388;54.962;73.394;2022-07-10T00:58:57;11.52;;;6.85;;
73172;SDS011;61388;54.962;73.394;2022-07-10T01:01:23;11.38;;;7.30;;
73172;SDS011;61388;54.962;73.394;2022-07-10T01:03:50;13.57;;;7.20;;
73172;SDS011;61388;54.962;73.394;2022-07-10T01:06:26;11.80;;;7.68;;
73172;SDS011;61388;54.962;73.394;2022-07-10T01:08:52;11.65;;;7.70;;
73172;SDS011;61388;54.962;73.394;2022-07-10T01:11:20;13.25;;;8.00;;
73172;SDS011;61388;54.962;73.394;2022-07-10T01:13:52;13.45;;;7.47;;
73172;SDS011;61388;54.962;73.394;2022-07-10T01:16:24;14.25;;;7.10;;
73172;SDS011;61388;54.962;73.394;2022-07-10T01:18:50;14.27;;;7.70;;
73172;SDS011;61388;54.962;73.394;2022-07-10T01:21:49;9.70;;;7.22;;
73172;SDS011;61388;54.962;73.394;2022-07-10T01:24:09;12.27;;;7.30;;
73172;SDS011;61388;54.962;73.394;2022-07-10T01:26:35;10.18;;;7.57;;
73172;SDS011;61388;54.962;73.394;2022-07-10T01:29:03;8.60;;;7.18;;
73172;SDS011;61388;54.962;73.394;2022-07-10T01:31:29;12.82;;;7.57;;
73172;SDS011;61388;54.962;73.394;2022-07-10T01:33:55;9.90;;;7.18;;
73172;SDS011;61388;54.962;73.394;2022-07-10T01:36:21;11.52;;;7.18;;
73172;SDS011;61388;54.962;73.394;2022-07-10T01:38:48;11.45;;;7.38;;
73172;SDS011;61388;54.962;73.394;2022-07-10T01:41:16;10.48;;;7.97;;
73172;SDS011;61388;54.962;73.394;2022-07-10T01:43:42;13.00;;;7.83;;
73172;SDS011;61388;54.962;73.394;2022-07-10T01:46:20;11.63;;;7.72;;
73172;SDS011;61388;54.962;73.394;2022-07-10T01:48:46;10.55;;;7.40;;
73172;SDS011;61388;54.962;73.394;2022-07-10T01:51:12;13.13;;;7.97;;
73172;SDS011;61388;54.962;73.394;2022-07-10T01:53:38;15.45;;;8.55;;
73172;SDS011;61388;54.962;73.394;2022-07-10T01:56:05;13.93;;;8.20;;
73172;SDS011;61388;54.962;73.394;2022-07-10T01:58:32;15.27;;;8.15;;
73172;SDS011;61388;54.962;73.394;2022-07-10T02:00:58;18.15;;;8.73;;
73172;SDS011;61388;54.962;73.394;2022-07-10T02:03:24;17.42;;;8.25;;
73172;SDS011;61388;54.962;73.394;2022-07-10T02:06:08;12.40;;;7.82;;
73172;SDS011;61388;54.962;73.394;2022-07-10T02:08:34;17.23;;;8.37;;
73172;SDS011;61388;54.962;73.394;2022-07-10T02:11:01;22.98;;;12.73;;
73172;SDS011;61388;54.962;73.394;2022-07-10T02:13:27;14.68;;;8.57;;
73172;SDS011;61388;54.962;73.394;2022-07-10T02:15:53;13.40;;;8.93;;
73172;SDS011;61388;54.962;73.394;2022-07-10T02:18:19;12.65;;;8.18;;
73172;SDS011;61388;54.962;73.394;2022-07-10T02:20:46;12.83;;;7.83;;
73172;SDS011;61388;54.962;73.394;2022-07-10T02:23:12;10.60;;;8.05;;
73172;SDS011;61388;54.962;73.394;2022-07-10T02:25:38;11.38;;;7.75;;
73172;SDS011;61388;54.962;73.394;2022-07-10T02:28:04;11.70;;;7.65;;
73172;SDS011;61388;54.962;73.394;2022-07-10T02:30:30;14.82;;;8.32;;
73172;SDS011;61388;54.962;73.394;2022-07-10T02:33:02;19.20;;;8.13;;
73172;SDS011;61388;54.962;73.394;2022-07-10T02:35:32;21.33;;;10.90;;
73172;SDS011;61388;54.962;73.394;2022-07-10T02:37:58;16.42;;;9.18;;
73172;SDS011;61388;54.962;73.394;2022-07-10T02:40:24;10.85;;;8.10;;
73172;SDS011;61388;54.962;73.394;2022-07-10T02:42:50;13.38;;;8.43;;
73172;SDS011;61388;54.962;73.394;2022-07-10T02:45:21;12.10;;;7.87;;
73172;SDS011;61388;54.962;73.394;2022-07-10T02:47:57;12.57;;;8.60;;
73172;SDS011;61388;54.962;73.394;2022-07-10T02:50:23;14.80;;;7.80;;
73172;SDS011;61388;54.962;73.394;2022-07-10T02:52:51;14.25;;;7.55;;
73172;SDS011;61388;54.962;73.394;2022-07-10T02:55:17;15.10;;;8.02;;
73172;SDS011;61388;54.962;73.394;2022-07-10T02:57:53;20.20;;;8.70;;
73172;SDS011;61388;54.962;73.394;2022-07-10T03:00:25;9.75;;;8.00;;
73172;SDS011;61388;54.962;73.394;2022-07-10T03:02:58;10.95;;;7.95;;
73172;SDS011;61388;54.962;73.394;2022-07-10T03:05:24;14.95;;;9.77;;
73172;SDS011;61388;54.962;73.394;2022-07-10T03:07:50;13.70;;;7.75;;
73172;SDS011;61388;54.962;73.394;2022-07-10T03:10:16;10.23;;;7.20;;
73172;SDS011;61388;54.962;73.394;2022-07-10T03:12:42;14.18;;;8.13;;
73172;SDS011;61388;54.962;73.394;2022-07-10T03:15:09;11.65;;;7.70;;
73172;SDS011;61388;54.962;73.394;2022-07-10T03:17:35;11.18;;;7.40;;
73172;SDS011;61388;54.962;73.394;2022-07-10T03:20:06;22.90;;;8.35;;
73172;SDS011;61388;54.962;73.394;2022-07-10T03:22:34;10.53;;;7.33;;
73172;SDS011;61388;54.962;73.394;2022-07-10T03:25:00;12.13;;;8.25;;
73172;SDS011;61388;54.962;73.394;2022-07-10T03:27:26;14.32;;;8.55;;
73172;SDS011;61388;54.962;73.394;2022-07-10T03:29:52;18.13;;;9.88;;
73172;SDS011;61388;54.962;73.394;2022-07-10T03:32:23;14.27;;;8.73;;
73172;SDS011;61388;54.962;73.394;2022-07-10T03:35:00;16.33;;;9.13;;
73172;SDS011;61388;54.962;73.394;2022-07-10T03:37:28;17.20;;;8.38;;
73172;SDS011;61388;54.962;73.394;2022-07-10T03:39:54;19.90;;;8.15;;
73172;SDS011;61388;54.962;73.394;2022-07-10T03:42:20;18.02;;;8.48;;
73172;SDS011;61388;54.962;73.394;2022-07-10T03:44:57;15.55;;;7.63;;
73172;SDS011;61388;54.962;73.394;2022-07-10T03:47:23;16.48;;;9.80;;
73172;SDS011;61388;54.962;73.394;2022-07-10T03:49:49;15.35;;;7.15;;
73172;SDS011;61388;54.962;73.394;2022-07-10T03:52:15;17.02;;;8.70;;
73172;SDS011;61388;54.962;73.394;2022-07-10T03:54:41;22.58;;;9.98;;
73172;SDS011;61388;54.962;73.394;2022-07-10T03:57:07;13.80;;;7.78;;
73172;SDS011;61388;54.962;73.394;2022-07-10T03:59:52;13.73;;;8.40;;
73172;SDS011;61388;54.962;73.394;2022-07-10T04:02:26;20.70;;;13.27;;
73172;SDS011;61388;54.962;73.394;2022-07-10T04:04:52;16.95;;;9.07;;
73172;SDS011;61388;54.962;73.394;2022-07-10T04:07:24;86.90;;;12.68;;
73172;SDS011;61388;54.962;73.394;2022-07-10T04:09:50;630.13;;;373.93;;
73172;SDS011;61388;54.962;73.394;2022-07-10T04:12:16;17.93;;;8.57;;
73172;SDS011;61388;54.962;73.394;2022-07-10T04:14:42;16.95;;;7.05;;
73172;SDS011;61388;54.962;73.394;2022-07-10T04:17:09;28.38;;;9.93;;
73172;SDS011;61388;54.962;73.394;2022-07-10T04:19:35;40.85;;;13.27;;
73172;SDS011;61388;54.962;73.394;2022-07-10T04:22:01;26.57;;;9.37;;
73172;SDS011;61388;54.962;73.394;2022-07-10T04:24:27;19.00;;;8.80;;
73172;SDS011;61388;54.962;73.394;2022-07-10T04:26:53;19.92;;;9.55;;
73172;SDS011;61388;54.962;73.394;2022-07-10T04:29:19;11.65;;;7.28;;
73172;SDS011;61388;54.962;73.394;2022-07-10T04:31:50;834.20;;;436.65;;
73172;SDS011;61388;54.962;73.394;2022-07-10T04:34:16;1515.07;;;148.23;;
73172;SDS011;61388;54.962;73.394;2022-07-10T04:36:43;1805.40;;;412.50;;
73172;SDS011;61388;54.962;73.394;2022-07-10T04:39:09;1994.28;;;396.55;;
73172;SDS011;61388;54.962;73.394;2022-07-10T04:41:40;1276.47;;;335.40;;
73172;SDS011;61388;54.962;73.394;2022-07-10T04:44:17;1194.88;;;961.92;;
73172;SDS011;61388;54.962;73.394;2022-07-10T04:46:48;1187.38;;;950.45;;
73172;SDS011;61388;54.962;73.394;2022-07-10T04:49:14;1415.32;;;910.03;;
73172;SDS011;61388;54.962;73.394;2022-07-10T04:51:40;1217.85;;;985.10;;
73172;SDS011;61388;54.962;73.394;2022-07-10T04:54:10;1335.93;;;952.65;;
73172;SDS011;61388;54.962;73.394;2022-07-10T04:56:36;1095.63;;;923.13;;
73172;SDS011;61388;54.962;73.394;2022-07-10T04:59:12;1154.47;;;929.72;;
73172;SDS011;61388;54.962;73.394;2022-07-10T05:01:38;65.70;;;10.18;;
73172;SDS011;61388;54.962;73.394;2022-07-10T05:04:04;38.00;;;7.50;;
73172;SDS011;61388;54.962;73.394;2022-07-10T05:06:40;13.15;;;7.55;;
73172;SDS011;61388;54.962;73.394;2022-07-10T05:09:09;11.63;;;7.35;;
73172;SDS011;61388;54.962;73.394;2022-07-10T05:11:38;8.68;;;7.05;;
73172;SDS011;61388;54.962;73.394;2022-07-10T05:14:10;17.87;;;8.27;;
73172;SDS011;61388;54.962;73.394;2022-07-10T05:16:36;10.85;;;9.15;;
73172;SDS011;61388;54.962;73.394;2022-07-10T05:19:02;19.27;;;7.03;;
73172;SDS011;61388;54.962;73.394;2022-07-10T05:21:28;8.65;;;6.75;;
73172;SDS011;61388;54.962;73.394;2022-07-10T05:23:55;15.38;;;6.85;;
73172;SDS011;61388;54.962;73.394;2022-07-10T05:26:21;11.43;;;7.35;;
73172;SDS011;61388;54.962;73.394;2022-07-10T05:28:47;11.82;;;6.38;;
73172;SDS011;61388;54.962;73.394;2022-07-10T05:31:13;63.58;;;8.93;;
73172;SDS011;61388;54.962;73.394;2022-07-10T05:33:43;23.70;;;10.50;;
73172;SDS011;61388;54.962;73.394;2022-07-10T05:36:14;14.65;;;7.40;;
73172;SDS011;61388;54.962;73.394;2022-07-10T05:38:40;53.17;;;9.45;;
73172;SDS011;61388;54.962;73.394;2022-07-10T05:41:07;91.32;;;9.57;;
73172;SDS011;61388;54.962;73.394;2022-07-10T05:43:38;826.75;;;76.15;;
73172;SDS011;61388;54.962;73.394;2022-07-10T05:46:04;1033.05;;;113.82;;
73172;SDS011;61388;54.962;73.394;2022-07-10T05:48:31;732.40;;;66.90;;
73172;SDS011;61388;54.962;73.394;2022-07-10T05:51:02;139.50;;;18.03;;
73172;SDS011;61388;54.962;73.394;2022-07-10T05:53:37;32.33;;;8.25;;
73172;SDS011;61388;54.962;73.394;2022-07-10T05:56:03;9.88;;;7.03;;
73172;SDS011;61388;54.962;73.394;2022-07-10T05:58:30;11.43;;;7.10;;
73172;SDS011;61388;54.962;73.394;2022-07-10T06:00:56;14.10;;;7.32;;
73172;SDS011;61388;54.962;73.394;2022-07-10T06:03:22;14.50;;;7.80;;
73172;SDS011;61388;54.962;73.394;2022-07-10T06:05:48;21.35;;;8.27;;
73172;SDS011;61388;54.962;73.394;2022-07-10T06:08:14;12.68;;;7.25;;
73172;SDS011;61388;54.962;73.394;2022-07-10T06:10:40;32.33;;;7.70;;
73172;SDS011;61388;54.962;73.394;2022-07-10T06:13:15;28.27;;;7.40;;
73172;SDS011;61388;54.962;73.394;2022-07-10T06:15:41;8.68;;;7.07;;
73172;SDS011;61388;54.962;73.394;2022-07-10T06:18:07;10.57;;;7.30;;
73172;SDS011;61388;54.962;73.394;2022-07-10T06:20:38;9.38;;;6.90;;
73172;SDS011;61388;54.962;73.394;2022-07-10T06:23:04;11.60;;;7.20;;
73172;SDS011;61388;54.962;73.394;2022-07-10T06:25:30;8.77;;;6.87;;
73172;SDS011;61388;54.962;73.394;2022-07-10T06:27:56;11.20;;;7.10;;
73172;SDS011;61388;54.962;73.394;2022-07-10T06:30:28;12.50;;;7.07;;
73172;SDS011;61388;54.962;73.394;2022-07-10T06:32:54;22.80;;;7.63;;
73172;SDS011;61388;54.962;73.394;2022-07-10T06:35:20;83.80;;;9.63;;
73172;SDS011;61388;54.962;73.394;2022-07-10T06:37:46;12.60;;;7.10;;
73172;SDS011;61388;54.962;73.394;2022-07-10T06:40:13;11.55;;;7.00;;
73172;SDS011;61388;54.962;73.394;2022-07-10T06:42:44;14.20;;;7.40;;
73172;SDS011;61388;54.962;73.394;2022-07-10T06:45:11;11.88;;;6.80;;
73172;SDS011;61388;54.962;73.394;2022-07-10T06:47:41;12.38;;;7.40;;
73172;SDS011;61388;54.962;73.394;2022-07-10T06:50:23;12.27;;;7.13;;
73172;SDS011;61388;54.962;73.394;2022-07-10T06:52:53;9.90;;;6.15;;
73172;SDS011;61388;54.962;73.394;2022-07-10T06:55:20;11.18;;;7.10;;
73172;SDS011;61388;54.962;73.394;2022-07-10T06:57:47;10.30;;;6.57;;
73172;SDS011;61388;54.962;73.394;2022-07-10T07:00:22;15.02;;;6.90;;
73172;SDS011;61388;54.962;73.394;2022-07-10T07:02:48;14.10;;;6.50;;
73172;SDS011;61388;54.962;73.394;2022-07-10T07:05:14;11.82;;;6.60;;
73172;SDS011;61388;54.962;73.394;2022-07-10T07:07:40;21.65;;;7.15;;
73172;SDS011;61388;54.962;73.394;2022-07-10T07:10:11;11.32;;;6.78;;
73172;SDS011;61388;54.962;73.394;2022-07-10T07:12:43;10.20;;;6.90;;
73172;SDS011;61388;54.962;73.394;2022-07-10T07:15:09;14.95;;;7.13;;
73172;SDS011;61388;54.962;73.394;2022-07-10T07:17:45;16.33;;;7.00;;
73172;SDS011;61388;54.962;73.394;2022-07-10T07:20:33;12.27;;;6.78;;
73172;SDS011;61388;54.962;73.394;2022-07-10T07:23:18;9.48;;;6.95;;
73172;SDS011;61388;54.962;73.394;2022-07-10T07:25:52;8.18;;;6.45;;
73172;SDS011;61388;54.962;73.394;2022-07-10T07:28:19;11.57;;;6.13;;
73172;SDS011;61388;54.962;73.394;2022-07-10T07:30:45;34.30;;;8.55;;
73172;SDS011;61388;54.962;73.394;2022-07-10T07:33:21;10.90;;;6.53;;
73172;SDS011;61388;54.962;73.394;2022-07-10T07:35:47;38.58;;;10.10;;
73172;SDS011;61388;54.962;73.394;2022-07-10T07:38:13;21.98;;;8.10;;
73172;SDS011;61388;54.962;73.394;2022-07-10T07:40:44;17.43;;;7.80;;
73172;SDS011;61388;54.962;73.394;2022-07-10T07:43:14;15.35;;;7.18;;
73172;SDS011;61388;54.962;73.394;2022-07-10T07:45:40;19.60;;;6.80;;
73172;SDS011;61388;54.962;73.394;2022-07-10T07:48:12;25.38;;;8.60;;
73172;SDS011;61388;54.962;73.394;2022-07-10T07:50:38;25.52;;;10.00;;
73172;SDS011;61388;54.962;73.394;2022-07-10T07:53:04;24.63;;;8.37;;
73172;SDS011;61388;54.962;73.394;2022-07-10T07:55:31;33.88;;;9.98;;
73172;SDS011;61388;54.962;73.394;2022-07-10T07:57:58;24.80;;;8.20;;
73172;SDS011;61388;54.962;73.394;2022-07-10T08:00:25;19.60;;;7.32;;
73172;SDS011;61388;54.962;73.394;2022-07-10T08:02:52;10.55;;;6.57;;
73172;SDS011;61388;54.962;73.394;2022-07-10T08:05:24;20.65;;;7.75;;
73172;SDS011;61388;54.962;73.394;2022-07-10T08:07:51;30.67;;;8.60;;
73172;SDS011;61388;54.962;73.394;2022-07-10T08:10:28;12.77;;;6.85;;
73172;SDS011;61388;54.962;73.394;2022-07-10T08:12:59;13.60;;;6.25;;
73172;SDS011;61388;54.962;73.394;2022-07-10T08:15:25;9.88;;;6.28;;
73172;SDS011;61388;54.962;73.394;2022-07-10T08:17:52;11.40;;;7.70;;
73172;SDS011;61388;54.962;73.394;2022-07-10T08:20:18;16.50;;;8.05;;
73172;SDS011;61388;54.962;73.394;2022-07-10T08:22:45;9.43;;;6.15;;
73172;SDS011;61388;54.962;73.394;2022-07-10T08:25:23;13.80;;;7.25;;
73172;SDS011;61388;54.962;73.394;2022-07-10T08:27:49;10.77;;;6.22;;
73172;SDS011;61388;54.962;73.394;2022-07-10T08:30:17;14.02;;;6.25;;
73172;SDS011;61388;54.962;73.394;2022-07-10T08:32:53;10.32;;;5.97;;
73172;SDS011;61388;54.962;73.394;2022-07-10T08:35:19;12.10;;;6.10;;
73172;SDS011;61388;54.962;73.394;2022-07-10T08:37:50;7.95;;;5.82;;
73172;SDS011;61388;54.962;73.394;2022-07-10T08:40:22;12.45;;;5.97;;
73172;SDS011;61388;54.962;73.394;2022-07-10T08:42:48;7.25;;;5.68;;
73172;SDS011;61388;54.962;73.394;2022-07-10T08:45:14;12.77;;;6.32;;
73172;SDS011;61388;54.962;73.394;2022-07-10T08:47:42;19.05;;;7.20;;
73172;SDS011;61388;54.962;73.394;2022-07-10T08:50:17;12.20;;;6.75;;
73172;SDS011;61388;54.962;73.394;2022-07-10T08:53:08;16.73;;;7.47;;
73172;SDS011;61388;54.962;73.394;2022-07-10T08:55:31;12.90;;;6.80;;
73172;SDS011;61388;54.962;73.394;2022-07-10T08:57:58;8.95;;;6.00;;
73172;SDS011;61388;54.962;73.394;2022-07-10T09:00:24;11.75;;;6.60;;
73172;SDS011;61388;54.962;73.394;2022-07-10T09:02:52;37.17;;;9.05;;
73172;SDS011;61388;54.962;73.394;2022-07-10T09:05:18;27.17;;;8.02;;
73172;SDS011;61388;54.962;73.394;2022-07-10T09:07:45;13.10;;;7.03;;
73172;SDS011;61388;54.962;73.394;2022-07-10T09:10:21;13.65;;;6.85;;
73172;SDS011;61388;54.962;73.394;2022-07-10T09:12:49;9.60;;;6.40;;
73172;SDS011;61388;54.962;73.394;2022-07-10T09:15:16;9.10;;;6.18;;
73172;SDS011;61388;54.962;73.394;2022-07-10T09:17:57;13.65;;;6.35;;
73172;SDS011;61388;54.962;73.394;2022-07-10T09:20:39;10.17;;;6.57;;
73172;SDS011;61388;54.962;73.394;2022-07-10T09:23:22;10.48;;;6.38;;
73172;SDS011;61388;54.962;73.394;2022-07-10T09:25:51;26.60;;;10.55;;
73172;SDS011;61388;54.962;73.394;2022-07-10T09:28:18;20.17;;;6.85;;
73172;SDS011;61388;54.962;73.394;2022-07-10T09:30:45;13.90;;;6.53;;
73172;SDS011;61388;54.962;73.394;2022-07-10T09:35:55;29.67;;;8.40;;
73172;SDS011;61388;54.962;73.394;2022-07-10T09:41:28;15.45;;;7.10;;
73172;SDS011;61388;54.962;73.394;2022-07-10T09:43:58;17.73;;;7.45;;
73172;SDS011;61388;54.962;73.394;2022-07-10T09:46:26;19.70;;;6.63;;
73172;SDS011;61388;54.962;73.394;2022-07-10T09:49:05;13.82;;;6.85;;
73172;SDS011;61388;54.962;73.394;2022-07-10T09:51:43;11.90;;;6.47;;
73172;SDS011;61388;54.962;73.394;2022-07-10T09:54:09;11.00;;;6.13;;
73172;SDS011;61388;54.962;73.394;2022-07-10T09:56:40;11.30;;;6.32;;
73172;SDS011;61388;54.962;73.394;2022-07-10T09:59:08;14.70;;;7.30;;
73172;SDS011;61388;54.962;73.394;2022-07-10T10:01:35;12.18;;;6.75;;
73172;SDS011;61388;54.962;73.394;2022-07-10T10:04:17;9.00;;;6.10;;
73172;SDS011;61388;54.962;73.394;2022-07-10T10:06:46;12.48;;;5.90;;
73172;SDS011;61388;54.962;73.394;2022-07-10T10:09:15;11.07;;;6.03;;
73172;SDS011;61388;54.962;73.394;2022-07-10T10:11:43;6.65;;;5.57;;
73172;SDS011;61388;54.962;73.394;2022-07-10T10:14:10;8.50;;;6.18;;
73172;SDS011;61388;54.962;73.394;2022-07-10T10:16:36;8.82;;;6.10;;
73172;SDS011;61388;54.962;73.394;2022-07-10T10:19:03;11.32;;;6.35;;
73172;SDS011;61388;54.962;73.394;2022-07-10T10:21:48;12.85;;;6.07;;
73172;SDS011;61388;54.962;73.394;2022-07-10T10:24:14;8.20;;;5.85;;
73172;SDS011;61388;54.962;73.394;2022-07-10T10:26:50;8.82;;;5.80;;
73172;SDS011;61388;54.962;73.394;2022-07-10T10:29:17;7.63;;;5.75;;
73172;SDS011;61388;54.962;73.394;2022-07-10T10:31:43;7.95;;;6.22;;
73172;SDS011;61388;54.962;73.394;2022-07-10T10:34:09;8.23;;;5.90;;
73172;SDS011;61388;54.962;73.394;2022-07-10T10:39:14;10.70;;;6.60;;
73172;SDS011;61388;54.962;73.394;2022-07-10T10:41:42;15.13;;;6.50;;
73172;SDS011;61388;54.962;73.394;2022-07-10T10:52:15;8.80;;;6.50;;
73172;SDS011;61388;54.962;73.394;2022-07-10T10:57:24;12.13;;;6.15;;
73172;SDS011;61388;54.962;73.394;2022-07-10T11:00:04;8.55;;;6.32;;
73172;SDS011;61388;54.962;73.394;2022-07-10T11:02:36;9.27;;;6.20;;
73172;SDS011;61388;54.962;73.394;2022-07-10T11:13:09;9.47;;;6.50;;
73172;SDS011;61388;54.962;73.394;2022-07-10T11:15:42;12.07;;;6.70;;
73172;SDS011;61388;54.962;73.394;2022-07-10T11:18:10;10.38;;;6.78;;
73172;SDS011;61388;54.962;73.394;2022-07-10T11:20:42;9.48;;;6.25;;
73172;SDS011;61388;54.962;73.394;2022-07-10T11:23:23;9.85;;;7.65;;
73172;SDS011;61388;54.962;73.394;2022-07-10T11:26:06;11.13;;;6.37;;
73172;SDS011;61388;54.962;73.394;2022-07-10T11:31:09;8.75;;;6.30;;
73172;SDS011;61388;54.962;73.394;2022-07-10T11:33:42;9.38;;;6.00;;
73172;SDS011;61388;54.962;73.394;2022-07-10T11:36:16;11.65;;;5.95;;
73172;SDS011;61388;54.962;73.394;2022-07-10T11:38:43;12.57;;;6.30;;
73172;SDS011;61388;54.962;73.394;2022-07-10T11:41:20;8.90;;;6.25;;
73172;SDS011;61388;54.962;73.394;2022-07-10T11:43:50;7.95;;;6.60;;
73172;SDS011;61388;54.962;73.394;2022-07-10T11:46:16;10.73;;;6.88;;
73172;SDS011;61388;54.962;73.394;2022-07-10T11:48:42;13.52;;;6.55;;
73172;SDS011;61388;54.962;73.394;2022-07-10T11:51:16;9.53;;;6.50;;
73172;SDS011;61388;54.962;73.394;2022-07-10T11:53:59;9.68;;;6.85;;
73172;SDS011;61388;54.962;73.394;2022-07-10T11:56:26;10.43;;;7.00;;
73172;SDS011;61388;54.962;73.394;2022-07-10T11:58:59;10.35;;;6.70;;
73172;SDS011;61388;54.962;73.394;2022-07-10T12:01:26;11.02;;;6.13;;
73172;SDS011;61388;54.962;73.394;2022-07-10T12:03:55;12.73;;;6.93;;
73172;SDS011;61388;54.962;73.394;2022-07-10T12:06:22;10.23;;;6.93;;
73172;SDS011;61388;54.962;73.394;2022-07-10T12:08:49;12.70;;;6.65;;
73172;SDS011;61388;54.962;73.394;2022-07-10T12:11:15;11.77;;;6.30;;
73172;SDS011;61388;54.962;73.394;2022-07-10T12:13:42;11.23;;;6.88;;
73172;SDS011;61388;54.962;73.394;2022-07-10T12:16:08;9.70;;;6.20;;
73172;SDS011;61388;54.962;73.394;2022-07-10T12:18:34;10.38;;;6.30;;
73172;SDS011;61388;54.962;73.394;2022-07-10T12:21:00;10.32;;;6.40;;
73172;SDS011;61388;54.962;73.394;2022-07-10T12:23:27;7.53;;;6.00;;
73172;SDS011;61388;54.962;73.394;2022-07-10T12:25:53;22.55;;;6.55;;
73172;SDS011;61388;54.962;73.394;2022-07-10T12:28:22;13.67;;;6.53;;
73172;SDS011;61388;54.962;73.394;2022-07-10T12:30:52;9.18;;;6.30;;
73172;SDS011;61388;54.962;73.394;2022-07-10T12:33:26;12.32;;;6.80;;
73172;SDS011;61388;54.962;73.394;2022-07-10T12:35:56;9.60;;;5.88;;
73172;SDS011;61388;54.962;73.394;2022-07-10T12:38:23;11.48;;;6.38;;
73172;SDS011;61388;54.962;73.394;2022-07-10T12:40:50;11.43;;;6.17;;
73172;SDS011;61388;54.962;73.394;2022-07-10T12:43:27;11.15;;;6.93;;
73172;SDS011;61388;54.962;73.394;2022-07-10T12:46:13;10.38;;;6.60;;
73172;SDS011;61388;54.962;73.394;2022-07-10T12:49:06;10.68;;;7.03;;
73172;SDS011;61388;54.962;73.394;2022-07-10T12:51:53;11.98;;;7.65;;
73172;SDS011;61388;54.962;73.394;2022-07-10T12:57:14;11.30;;;7.93;;
73172;SDS011;61388;54.962;73.394;2022-07-10T12:59:40;13.05;;;7.78;;
73172;SDS011;61388;54.962;73.394;2022-07-10T13:02:20;10.38;;;6.78;;
73172;SDS011;61388;54.962;73.394;2022-07-10T13:04:56;8.98;;;6.47;;
73172;SDS011;61388;54.962;73.394;2022-07-10T13:07:31;10.60;;;6.07;;
73172;SDS011;61388;54.962;73.394;2022-07-10T13:10:01;15.35;;;7.20;;
73172;SDS011;61388;54.962;73.394;2022-07-10T13:12:27;11.68;;;6.50;;
73172;SDS011;61388;54.962;73.394;2022-07-10T13:15:04;11.55;;;6.07;;
73172;SDS011;61388;54.962;73.394;2022-07-10T13:17:42;7.95;;;6.50;;
73172;SDS011;61388;54.962;73.394;2022-07-10T13:20:09;11.33;;;6.10;;
73172;SDS011;61388;54.962;73.394;2022-07-10T13:22:35;8.82;;;6.20;;
73172;SDS011;61388;54.962;73.394;2022-07-10T13:25:01;13.30;;;6.53;;
73172;SDS011;61388;54.962;73.394;2022-07-10T13:27:28;9.98;;;6.55;;
73172;SDS011;61388;54.962;73.394;2022-07-10T13:29:54;11.65;;;7.18;;
73172;SDS011;61388;54.962;73.394;2022-07-10T13:32:20;44.67;;;19.53;;
73172;SDS011;61388;54.962;73.394;2022-07-10T13:34:46;13.98;;;7.45;;
73172;SDS011;61388;54.962;73.394;2022-07-10T13:37:12;9.82;;;7.18;;
73172;SDS011;61388;54.962;73.394;2022-07-10T13:39:40;11.88;;;6.95;;
73172;SDS011;61388;54.962;73.394;2022-07-10T13:42:06;9.55;;;6.68;;
73172;SDS011;61388;54.962;73.394;2022-07-10T13:44:32;10.10;;;6.50;;
73172;SDS011;61388;54.962;73.394;2022-07-10T13:46:58;10.60;;;6.65;;
73172;SDS011;61388;54.962;73.394;2022-07-10T13:49:24;12.60;;;6.80;;
73172;SDS011;61388;54.962;73.394;2022-07-10T13:51:52;11.07;;;6.75;;
73172;SDS011;61388;54.962;73.394;2022-07-10T13:54:18;15.75;;;7.38;;
73172;SDS011;61388;54.962;73.394;2022-07-10T13:56:45;10.90;;;7.03;;
73172;SDS011;61388;54.962;73.394;2022-07-10T13:59:11;12.00;;;8.15;;
73172;SDS011;61388;54.962;73.394;2022-07-10T14:01:37;17.98;;;7.82;;
73172;SDS011;61388;54.962;73.394;2022-07-10T14:04:03;11.13;;;7.28;;
73172;SDS011;61388;54.962;73.394;2022-07-10T14:06:29;26.58;;;10.57;;
73172;SDS011;61388;54.962;73.394;2022-07-10T14:08:55;13.98;;;8.15;;
73172;SDS011;61388;54.962;73.394;2022-07-10T14:11:21;23.50;;;9.20;;
73172;SDS011;61388;54.962;73.394;2022-07-10T14:13:47;27.75;;;10.65;;
73172;SDS011;61388;54.962;73.394;2022-07-10T14:16:13;10.98;;;7.45;;
73172;SDS011;61388;54.962;73.394;2022-07-10T14:18:39;18.40;;;8.95;;
73172;SDS011;61388;54.962;73.394;2022-07-10T14:21:07;20.50;;;9.87;;
73172;SDS011;61388;54.962;73.394;2022-07-10T14:23:35;15.18;;;9.73;;
73172;SDS011;61388;54.962;73.394;2022-07-10T14:26:02;26.20;;;11.80;;
73172;SDS011;61388;54.962;73.394;2022-07-10T14:28:29;15.43;;;9.13;;
73172;SDS011;61388;54.962;73.394;2022-07-10T14:30:55;12.90;;;8.18;;
73172;SDS011;61388;54.962;73.394;2022-07-10T14:33:23;12.20;;;8.37;;
73172;SDS011;61388;54.962;73.394;2022-07-10T14:35:51;15.23;;;8.20;;
73172;SDS011;61388;54.962;73.394;2022-07-10T14:38:17;16.50;;;8.88;;
73172;SDS011;61388;54.962;73.394;2022-07-10T14:40:43;16.52;;;8.52;;
73172;SDS011;61388;54.962;73.394;2022-07-10T14:43:17;15.52;;;8.85;;
73172;SDS011;61388;54.962;73.394;2022-07-10T14:45:43;16.73;;;8.17;;
73172;SDS011;61388;54.962;73.394;2022-07-10T14:48:09;10.93;;;7.80;;
73172;SDS011;61388;54.962;73.394;2022-07-10T14:50:36;10.98;;;8.48;;
73172;SDS011;61388;54.962;73.394;2022-07-10T14:53:02;17.48;;;9.25;;
73172;SDS011;61388;54.962;73.394;2022-07-10T14:55:36;14.60;;;8.70;;
73172;SDS011;61388;54.962;73.394;2022-07-10T14:58:02;12.23;;;8.47;;
73172;SDS011;61388;54.962;73.394;2022-07-10T15:00:28;16.05;;;9.98;;
73172;SDS011;61388;54.962;73.394;2022-07-10T15:02:54;13.20;;;8.30;;
73172;SDS011;61388;54.962;73.394;2022-07-10T15:05:31;15.43;;;8.85;;